Terminal Aerodrome Forecast
Issued by NWS

Home | Current Version | Previous Version | Text Only | Print | Product List | Glossary On
Versions: 1 2 3 4 5 6 7 8 9 10 11 12 13 14 15 16 17 18 19 20 21 22 23 24 25 26 27 28 29
000
FTUS43 KDLH 272331
TAFHIB
TAF
KHIB 272331Z 2800/2824 19008KT P6SM SCT250
     FM280700 16005KT P6SM BKN150 WS020/20030KT
     FM281000 14006KT P6SM VCSH SCT050 BKN120 WS020/20030KT
     FM281200 15007KT 5SM -SHRA SCT025 BKN080
     FM281500 15008KT 5SM -SHRA VCTS BKN012CB OVC070
     FM282100 18006KT 3SM -SHRA OVC008
     FM282300 13004KT P6SM OVC008=

USA.gov is the U.S. government's official web portal to all federal, state and local government web resources and services.